Main page
METAR-TAF:

METAR-TAF

Airports :

Pardubice, Czech Republic

Pardubice Airport

latitude: 50-00-48N, longitude: 15-44-19E, elevation: 226 m

Current weather observation

The report was made 48 minutes ago, at 02:00 UTC
Wind 2 kt from variable directions
Temperature 9°C
Humidity 87%
Pressure 1024 hPa
Visibility 10 km or more
no clouds below 1500 m and no cumulonimbus

METAR: LKPD 280200Z VRB02KT CAVOK 09/07 Q1024 RMK BLU

Time: 04:48 (02:48 UTC)

Forecast

The report was made 3 hours and 48 minutes ago, at 23:00 UTC
Forecast valid from 28 at 00 UTC to 29 at 00 UTC
Wind 4 kt from the East/Northeast
Visibility 10 km or more
no clouds below 1500 m and no cumulonimbus
Becoming
from 28 at 14 UTC to 28 at 16 UTC
Wind 6 kt from the South/Southwest

TAF: LKPD 272300Z 2800/2900 06004KT CAVOK BECMG 2814/2816 20006KT

Weather observations and forecasts of more than 4000 airports (METAR and TAF reports).

The available stations are represented by yellow and red dots on the map.

Hover mouse over dot to see the name of the station.

Then click to see weather observations and forecasts.

To change the map : click on the green buttons with a black cross to zoom in, on the green button with a dash to zoom out, or on the green arrows for adjacent maps.


METAR-TAF: